createdAt,value
2023-03-11T00:02:26.293Z,96194.96
2023-03-11T00:07:29.490Z,96188.05
2023-03-11T00:12:32.299Z,96184.55
2023-03-11T00:17:36.107Z,96173.73
2023-03-11T00:22:38.215Z,96182.14
2023-03-11T00:27:40.748Z,96179.69
2023-03-11T00:32:43.802Z,96176.48
2023-03-11T00:37:49.005Z,96175.00
2023-03-11T00:42:53.210Z,96176.48
2023-03-11T00:47:56.437Z,96177.51
2023-03-11T00:53:18.770Z,96180.70
2023-03-11T00:58:22.875Z,96178.08
2023-03-11T01:03:29.149Z,96183.36
2023-03-11T01:08:31.919Z,96185.13
2023-03-11T01:13:34.806Z,96189.31
2023-03-11T01:18:36.803Z,96186.09
2023-03-11T01:23:40.402Z,96189.03
2023-03-11T01:28:42.449Z,96191.73
2023-03-11T01:33:44.526Z,96187.91
2023-03-11T01:38:47.468Z,96184.38
2023-03-11T01:43:54.554Z,96180.79
2023-03-11T01:49:00.650Z,96175.83
2023-03-11T01:54:21.664Z,96176.35
2023-03-11T01:59:29.064Z,96186.69
2023-03-11T02:04:34.726Z,96173.90
2023-03-11T02:09:37.869Z,96174.81
2023-03-11T02:14:45.156Z,96176.46
2023-03-11T02:20:06.966Z,96172.43
2023-03-11T02:25:29.276Z,96175.08
2023-03-11T02:30:34.232Z,96173.50
2023-03-11T02:35:36.677Z,96179.19
2023-03-11T02:40:48.706Z,96180.08
2023-03-11T02:45:52.528Z,96197.52
2023-03-11T02:50:55.138Z,96202.25
2023-03-11T02:55:57.665Z,96199.40
2023-03-11T03:00:59.910Z,96198.04
2023-03-11T03:06:02.395Z,96198.79
2023-03-11T03:11:04.871Z,96198.13
2023-03-11T03:16:07.899Z,96197.40
2023-03-11T03:21:10.837Z,96199.66
2023-03-11T03:26:14.496Z,96198.36
2023-03-11T03:31:19.185Z,96200.91
2023-03-11T03:36:21.453Z,96209.24
2023-03-11T03:41:29.726Z,96213.23
2023-03-11T03:46:32.957Z,96214.66
2023-03-11T03:51:35.409Z,96224.23
2023-03-11T03:56:43.624Z,96229.83
2023-03-11T04:01:46.711Z,96226.02
2023-03-11T04:06:50.789Z,96223.25
2023-03-11T04:11:53.804Z,96214.81
2023-03-11T04:16:57.890Z,96217.81
2023-03-11T04:22:01.701Z,96218.27
2023-03-11T04:27:05.499Z,96217.05
2023-03-11T04:32:08.678Z,96219.50
2023-03-11T04:37:12.431Z,96217.10
2023-03-11T04:42:15.293Z,96214.51
2023-03-11T04:47:18.007Z,96218.20
2023-03-11T04:52:20.136Z,96224.20
2023-03-11T04:57:25.292Z,96239.41
2023-03-11T05:02:28.215Z,96251.20
2023-03-11T05:07:34.283Z,96271.94
2023-03-11T05:12:37.568Z,96287.30
2023-03-11T05:17:40.501Z,96303.28
2023-03-11T05:22:43.317Z,96309.55
2023-03-11T05:27:49.202Z,96314.76
2023-03-11T05:32:56.388Z,96315.98
2023-03-11T05:38:05.312Z,96325.09
2023-03-11T05:43:12.212Z,96339.48
2023-03-11T05:48:17.653Z,96356.31
2023-03-11T05:53:25.797Z,96368.64
2023-03-11T05:58:32.769Z,96374.12
2023-03-11T06:03:35.608Z,96386.58
2023-03-11T06:08:46.051Z,96401.09
2023-03-11T06:13:48.801Z,96403.26
2023-03-11T06:18:52.277Z,96408.15
2023-03-11T06:23:55.663Z,96419.69
2023-03-11T06:28:58.851Z,96428.53
2023-03-11T06:34:02.623Z,96438.02
2023-03-11T06:39:05.864Z,96442.23
2023-03-11T06:44:11.795Z,96445.58
2023-03-11T06:49:14.845Z,96446.61
2023-03-11T06:54:17.534Z,96456.61
2023-03-11T06:59:20.905Z,96465.94
2023-03-11T07:04:23.784Z,96477.60
2023-03-11T07:09:29.603Z,96482.85
2023-03-11T07:14:32.734Z,96491.29
2023-03-11T07:19:35.299Z,96501.38
2023-03-11T07:24:37.758Z,96506.31
2023-03-11T07:29:42.721Z,96504.69
2023-03-11T07:34:45.169Z,96523.59
2023-03-11T07:39:47.912Z,96522.52
2023-03-11T07:44:51.908Z,96531.66
2023-03-11T07:49:57.389Z,96540.81
2023-03-11T07:55:00.130Z,96550.44
2023-03-11T08:00:02.788Z,96556.02
2023-03-11T08:05:13.841Z,96565.76
2023-03-11T08:10:15.842Z,96568.98
2023-03-11T08:15:18.120Z,96574.74
2023-03-11T08:20:26.157Z,96587.34
2023-03-11T08:25:41.067Z,96595.19
2023-03-11T08:30:43.398Z,96609.16
2023-03-11T08:35:48.831Z,96612.09
2023-03-11T08:40:51.932Z,96617.17
2023-03-11T08:45:55.809Z,96626.85
2023-03-11T08:51:01.226Z,96635.44
2023-03-11T08:56:10.340Z,96632.30
2023-03-11T09:01:14.560Z,96644.25
2023-03-11T09:06:18.549Z,96645.19
2023-03-11T09:11:43.531Z,96654.66
2023-03-11T09:16:46.771Z,96667.09
2023-03-11T09:21:49.706Z,96681.89
2023-03-11T09:26:55.353Z,96689.98
2023-03-11T09:32:00.902Z,96690.97
2023-03-11T09:37:04.417Z,96697.64
2023-03-11T09:42:31.884Z,96715.11
2023-03-11T09:48:01.062Z,96720.18
2023-03-11T09:53:11.875Z,96732.01
2023-03-11T09:58:22.736Z,96746.09
2023-03-11T10:03:36.762Z,96759.61
2023-03-11T10:08:46.377Z,96768.80
2023-03-11T10:13:57.195Z,96781.04
2023-03-11T10:19:42.076Z,96787.85
2023-03-11T10:25:12.332Z,96808.55
2023-03-11T10:30:36.759Z,96808.83
2023-03-11T10:35:42.843Z,96829.95
2023-03-11T10:40:48.098Z,96844.73
2023-03-11T10:45:54.084Z,96870.47
2023-03-11T10:51:03.837Z,96882.30
2023-03-11T10:56:06.622Z,96891.77
2023-03-11T11:01:17.459Z,96907.14
2023-03-11T11:06:30.202Z,96928.48
2023-03-11T11:11:32.314Z,96944.30
2023-03-11T11:16:35.708Z,96946.35
2023-03-11T11:21:52.506Z,96954.34
2023-03-11T11:27:29.558Z,96983.14
2023-03-11T11:32:35.144Z,96991.47
2023-03-11T11:37:41.742Z,97004.20
2023-03-11T11:42:49.798Z,97015.56
2023-03-11T11:48:00.345Z,97040.60
2023-03-11T11:53:23.758Z,97048.41
2023-03-11T11:58:26.728Z,97060.73
2023-03-11T12:03:45.890Z,97078.96
2023-03-11T12:09:11.606Z,97090.89
2023-03-11T12:14:45.633Z,97094.46
2023-03-11T12:20:18.665Z,97112.98
2023-03-11T12:25:39.970Z,97127.73
2023-03-11T12:30:58.224Z,97131.37
2023-03-11T12:36:02.054Z,97141.75
2023-03-11T12:41:07.084Z,97161.77
2023-03-11T12:46:15.141Z,97166.55
2023-03-11T12:51:27.504Z,97169.89
2023-03-11T12:56:44.260Z,97180.02
2023-03-11T13:02:14.620Z,97191.48
2023-03-11T13:07:36.883Z,97206.39
2023-03-11T13:12:48.788Z,97228.19
2023-03-11T13:18:30.528Z,97248.52
2023-03-11T13:23:38.485Z,97259.40
2023-03-11T13:29:19.660Z,97279.12
2023-03-11T13:34:35.553Z,97286.45
2023-03-11T13:40:23.956Z,97296.69
2023-03-11T13:45:38.609Z,97315.75
2023-03-11T13:51:33.223Z,97324.45
2023-03-11T13:56:44.749Z,97331.55
2023-03-11T14:01:56.040Z,97338.13
2023-03-11T14:07:00.230Z,97368.02
2023-03-11T14:12:10.481Z,97370.99
2023-03-11T14:17:19.805Z,97386.44
2023-03-11T14:22:22.024Z,97393.59
2023-03-11T14:27:24.835Z,97401.88
2023-03-11T14:32:32.740Z,97415.20
2023-03-11T14:37:37.923Z,97414.88
2023-03-11T14:42:43.698Z,97429.52
2023-03-11T14:47:59.686Z,97443.63
2023-03-11T14:53:24.424Z,97457.16
2023-03-11T14:59:06.450Z,97458.12
2023-03-11T15:04:24.239Z,97477.74
2023-03-11T15:09:28.393Z,97478.70
2023-03-11T15:14:36.275Z,97492.02
2023-03-11T15:19:38.535Z,97501.14
2023-03-11T15:24:40.989Z,97505.70
2023-03-11T15:29:52.480Z,97510.16
2023-03-11T15:35:06.365Z,97522.42
2023-03-11T15:40:43.832Z,97529.58
2023-03-11T15:45:58.217Z,97545.36
2023-03-11T15:51:00.817Z,97559.70
2023-03-11T15:56:14.201Z,97571.02
2023-03-11T16:01:18.925Z,97586.77
2023-03-11T16:06:27.010Z,97594.65
2023-03-11T16:11:32.716Z,97603.05
2023-03-11T16:16:34.841Z,97614.09
2023-03-11T16:21:41.688Z,97622.67
2023-03-11T16:26:47.220Z,97634.34
2023-03-11T16:31:50.000Z,97645.18
2023-03-11T16:36:52.619Z,97659.73
2023-03-11T16:41:55.327Z,97678.35
2023-03-11T16:46:57.667Z,97682.31
2023-03-11T16:51:59.860Z,97693.70
2023-03-11T16:57:03.183Z,97707.91
2023-03-11T17:02:07.079Z,97721.46
2023-03-11T17:07:10.427Z,97729.73
2023-03-11T17:12:15.877Z,97742.88
2023-03-11T17:17:19.288Z,97758.83
2023-03-11T17:22:23.151Z,97766.67
2023-03-11T17:27:32.316Z,97787.85
2023-03-11T17:32:35.443Z,97789.42
2023-03-11T17:37:38.234Z,97795.05
2023-03-11T17:42:41.699Z,97812.30
2023-03-11T17:47:44.888Z,97813.80
2023-03-11T17:52:47.821Z,97818.44
2023-03-11T17:57:53.075Z,97831.34
2023-03-11T18:02:58.339Z,97841.41
2023-03-11T18:08:01.050Z,97857.66
2023-03-11T18:13:03.856Z,97872.31
2023-03-11T18:18:14.410Z,97879.05
2023-03-11T18:23:24.692Z,97888.21
2023-03-11T18:28:30.136Z,97897.58
2023-03-11T18:33:33.010Z,97908.39
2023-03-11T18:38:36.004Z,97914.29
2023-03-11T18:43:41.652Z,97913.39
2023-03-11T18:48:46.987Z,97920.14
2023-03-11T18:53:54.418Z,97927.95
2023-03-11T18:59:01.731Z,97935.82
2023-03-11T19:04:03.997Z,97945.09
2023-03-11T19:09:06.901Z,97947.27
2023-03-11T19:14:10.093Z,97955.33
2023-03-11T19:19:12.662Z,97961.14
2023-03-11T19:24:15.379Z,97966.65
2023-03-11T19:29:19.250Z,97971.55
2023-03-11T19:34:29.420Z,97980.17
2023-03-11T19:39:32.454Z,97989.05
2023-03-11T19:44:34.479Z,97984.99
2023-03-11T19:49:36.969Z,97984.64
2023-03-11T19:54:42.507Z,97989.75
2023-03-11T19:59:47.668Z,97995.08
2023-03-11T20:04:49.882Z,98001.71
2023-03-11T20:09:52.112Z,98010.54
2023-03-11T20:14:54.243Z,98016.98
2023-03-11T20:19:57.214Z,98015.41
2023-03-11T20:24:59.556Z,98014.71
2023-03-11T20:30:03.028Z,98017.92
2023-03-11T20:35:07.170Z,98023.68
2023-03-11T20:40:15.636Z,98024.09
2023-03-11T20:45:24.759Z,98033.63
2023-03-11T20:50:30.101Z,98039.08
2023-03-11T20:55:37.778Z,98048.20
2023-03-11T21:00:40.559Z,98064.51
2023-03-11T21:05:43.263Z,98072.16
2023-03-11T21:10:47.853Z,98071.52
2023-03-11T21:15:56.025Z,98071.89
2023-03-11T21:21:01.783Z,98080.16
2023-03-11T21:26:04.979Z,98078.16
2023-03-11T21:31:11.608Z,98087.10
2023-03-11T21:36:17.347Z,98088.25
2023-03-11T21:41:26.306Z,98086.39
2023-03-11T21:46:32.405Z,98089.98
2023-03-11T21:51:35.146Z,98094.17
2023-03-11T21:56:40.209Z,98106.41
2023-03-11T22:01:43.173Z,98109.71
2023-03-11T22:06:46.349Z,98109.55
2023-03-11T22:11:51.598Z,98117.36
2023-03-11T22:16:54.113Z,98126.23
2023-03-11T22:21:56.422Z,98132.89
2023-03-11T22:26:59.286Z,98126.75
2023-03-11T22:32:01.614Z,98132.30
2023-03-11T22:37:04.428Z,98133.34
2023-03-11T22:42:08.554Z,98137.39
2023-03-11T22:47:12.359Z,98142.01
2023-03-11T22:52:19.014Z,98139.85
2023-03-11T22:57:21.712Z,98137.27
2023-03-11T23:02:23.889Z,98140.73
2023-03-11T23:07:26.910Z,98143.00
2023-03-11T23:12:29.509Z,98144.72
2023-03-11T23:17:44.500Z,98141.17
2023-03-11T23:22:47.287Z,98142.16
2023-03-11T23:27:58.425Z,98146.97
2023-03-11T23:33:02.989Z,98155.07
2023-03-11T23:38:05.781Z,98158.37
2023-03-11T23:43:08.609Z,98161.53
2023-03-11T23:48:11.044Z,98171.27
2023-03-11T23:53:14.968Z,98176.98
2023-03-11T23:58:19.177Z,98176.84
